YBTL METAR and TAF | Updated Today

YBTL METAR

Townsville Airport

Observation time: 32 min. ago

YBTL 292000Z AUTO 17005KT 9999 // NCD 18/16 Q1015

Need help? Read our tutorial on how to read METARs or read the parsed version below.

Townsville Airport (YBTL) METAR

  • Weather conditions on Thu, 29 Sep 2022 20:00:00 +0000 (32 min. ago):
  • Present conditions: Dry
  • Clouds: Nil cloud detected
  • Visibility: Greater than 10 km
  • Wind: 170 degrees at 5 knots
  • Temperature: 18 celsius
  • Dew point: 16 celsius
  • Pressure: 1015 millibars
  • Remarks: None


Useful to know...

YBTL TAF

Townsville Airport

TAF YBTL 291703Z 2918/3018 17006KT 9999 FEW025 FM300100 05014KT 9999 FEW040 FM300900 11006KT 9999 FEW025
Observation time: 3:29 hr. ago
Need help? Read our tutorial on how to read TAFs or read the parsed version below.

Parsed version of TAF for Townsville Airport (YBTL)

  • From 29 September at 18:00 UTC, to day 30 of the month at 18:00 UTC
  • Clouds: A few at 762 meters
  • Visibility: Greater than 10 km
  • Wind: 170 degrees at 6
  • From day 30 of the month at 01:00 UTC
  • Clouds: A few at 1219 meters
  • Visibility: Greater than 10 km
  • Wind: 50 degrees at 14
  • From day 30 of the month at 09:00 UTC
  • Clouds: A few at 762 meters
  • Visibility: Greater than 10 km
  • Wind: 110 degrees at 6

Airports near YBTL

No airports found within 100nm radius.